Time;durP1;ratioP1;P1;durP2;ratioP2;P2;SDS_P1;SDS_P2;PMS_P1;PMS_P2;Temp;Humidity;BMP_temperature;BMP_pressure;BME280_temperature;BME280_humidity;BME280_pressure;Samples;Min_cycle;Max_cycle;Signal;HPM_P1;HPM_P2
2021/12/31 00:02:12;;;;;;;20.80;4.68;;;;;;;;;;5013668;28;20033;-57
2021/12/31 00:04:42;;;;;;;23.73;4.30;;;;;;;;;;5014334;28;20058;-58
2021/12/31 00:07:11;;;;;;;28.48;3.38;;;;;;;;;;5033014;28;20151;-58
2021/12/31 00:09:39;;;;;;;23.70;3.15;;;;;;;;;;5013644;28;20829;-57
2021/12/31 00:12:05;;;;;;;19.75;3.25;;;;;;;;;;5031164;28;20044;-58
2021/12/31 00:14:32;;;;;;;23.10;3.67;;;;;;;;;;5008091;28;20037;-58
2021/12/31 00:17:00;;;;;;;18.27;3.72;;;;;;;;;;5030264;28;20041;-58
2021/12/31 00:19:29;;;;;;;18.75;4.00;;;;;;;;;;5029185;28;20029;-59
2021/12/31 00:22:13;;;;;;;19.17;3.58;;;;;;;;;;5024265;28;20039;-58
2021/12/31 00:24:41;;;;;;;13.10;2.63;;;;;;;;;;5031352;28;20025;-59
2021/12/31 00:27:07;;;;;;;18.67;3.35;;;;;;;;;;5031650;28;20495;-58
2021/12/31 00:29:32;;;;;;;15.80;2.92;;;;;;;;;;5031575;28;20957;-58
2021/12/31 00:32:00;;;;;;;14.88;2.45;;;;;;;;;;5013045;28;20128;-58
2021/12/31 00:34:28;;;;;;;29.90;3.10;;;;;;;;;;5032098;28;20049;-58
2021/12/31 00:36:54;;;;;;;28.75;3.33;;;;;;;;;;5013537;28;20388;-58
2021/12/31 00:39:22;;;;;;;21.30;3.45;;;;;;;;;;5033140;28;20477;-58
2021/12/31 00:41:47;;;;;;;32.67;4.90;;;;;;;;;;5015127;28;20032;-58
2021/12/31 00:44:15;;;;;;;25.50;3.00;;;;;;;;;;5032800;28;20037;-58
2021/12/31 00:46:40;;;;;;;20.15;3.30;;;;;;;;;;4997794;28;20033;-58
2021/12/31 00:52:44;;;;;;;24.08;3.63;;;;;;;;;;5029258;28;22077;-58
2021/12/31 00:55:11;;;;;;;20.23;2.85;;;;;;;;;;5014157;28;20029;-58
2021/12/31 00:57:41;;;;;;;19.55;3.95;;;;;;;;;;5013076;28;20024;-58
2021/12/31 01:00:10;;;;;;;21.30;3.75;;;;;;;;;;4997455;28;20492;-58
2021/12/31 01:02:39;;;;;;;17.33;3.90;;;;;;;;;;5011752;28;20071;-57
2021/12/31 01:05:07;;;;;;;14.38;2.65;;;;;;;;;;5022195;28;20761;-59
2021/12/31 01:07:33;;;;;;;20.92;2.65;;;;;;;;;;5030782;28;21838;-57
2021/12/31 01:10:02;;;;;;;12.10;2.90;;;;;;;;;;4997784;28;20160;-57
2021/12/31 01:12:32;;;;;;;25.77;3.63;;;;;;;;;;4997457;28;20631;-58
2021/12/31 01:15:02;;;;;;;28.45;3.83;;;;;;;;;;5032249;28;20024;-59
2021/12/31 01:20:13;;;;;;;28.03;3.80;;;;;;;;;;4999420;28;20178;-57
2021/12/31 01:22:41;;;;;;;28.83;4.05;;;;;;;;;;5012497;28;20052;-58
2021/12/31 01:25:07;;;;;;;40.58;4.45;;;;;;;;;;5030479;28;20032;-59
2021/12/31 01:27:38;;;;;;;23.73;2.67;;;;;;;;;;4995145;28;20024;-58
2021/12/31 01:30:07;;;;;;;17.05;3.13;;;;;;;;;;5027629;28;20054;-58
2021/12/31 01:32:36;;;;;;;24.30;3.25;;;;;;;;;;5015499;28;20029;-58
2021/12/31 01:35:04;;;;;;;17.23;2.97;;;;;;;;;;5012021;28;20088;-58
2021/12/31 01:37:41;;;;;;;29.42;3.60;;;;;;;;;;5013085;28;20033;-58
2021/12/31 01:40:09;;;;;;;20.55;4.07;;;;;;;;;;5014663;28;20033;-58
2021/12/31 01:42:40;;;;;;;17.98;2.95;;;;;;;;;;4977460;28;21187;-57
2021/12/31 01:45:12;;;;;;;18.60;2.83;;;;;;;;;;5013287;28;20169;-58
2021/12/31 01:48:28;;;;;;;32.13;3.95;;;;;;;;;;5010355;28;20056;-57
2021/12/31 01:50:34;;;;;;;23.75;3.38;;;;;;;;;;5007329;28;20099;-57
2021/12/31 01:53:05;;;;;;;15.23;3.00;;;;;;;;;;5013276;28;20040;-58
2021/12/31 01:55:33;;;;;;;25.10;3.25;;;;;;;;;;5011957;28;20867;-58
2021/12/31 01:58:00;;;;;;;14.55;2.45;;;;;;;;;;4995171;28;20573;-57
2021/12/31 02:00:29;;;;;;;27.73;4.25;;;;;;;;;;5013884;28;20045;-57
2021/12/31 02:05:46;;;;;;;14.57;2.53;;;;;;;;;;5063870;22;20250;-58
2021/12/31 02:08:11;;;;;;;19.77;3.58;;;;;;;;;;4966259;28;20045;-58
2021/12/31 02:10:39;;;;;;;21.45;2.85;;;;;;;;;;4971145;28;20032;-58
2021/12/31 02:13:10;;;;;;;11.23;3.13;;;;;;;;;;4974978;28;20400;-59
2021/12/31 02:15:37;;;;;;;15.07;2.85;;;;;;;;;;4994448;28;20026;-59
2021/12/31 02:18:13;;;;;;;15.85;3.00;;;;;;;;;;5010318;28;20018;-59
2021/12/31 02:20:47;;;;;;;17.85;2.92;;;;;;;;;;4991167;28;20508;-58
2021/12/31 02:23:24;;;;;;;12.85;2.60;;;;;;;;;;5011032;28;20043;-58
2021/12/31 02:25:50;;;;;;;19.50;2.80;;;;;;;;;;5008759;28;20044;-58
2021/12/31 02:28:15;;;;;;;13.55;3.10;;;;;;;;;;5010910;28;20025;-58
2021/12/31 02:30:41;;;;;;;20.17;3.17;;;;;;;;;;5010430;28;20598;-57
2021/12/31 02:33:07;;;;;;;17.63;3.47;;;;;;;;;;5007334;28;20118;-59
2021/12/31 02:35:35;;;;;;;17.13;2.95;;;;;;;;;;5009253;28;20120;-58
2021/12/31 02:38:06;;;;;;;14.80;2.50;;;;;;;;;;4990249;28;20047;-58
2021/12/31 02:40:32;;;;;;;17.58;3.10;;;;;;;;;;5000836;28;20049;-58
2021/12/31 02:43:06;;;;;;;17.75;3.03;;;;;;;;;;4986168;28;20026;-58
2021/12/31 02:45:35;;;;;;;15.95;3.55;;;;;;;;;;5011094;28;20068;-57
2021/12/31 02:48:05;;;;;;;19.50;3.28;;;;;;;;;;5006971;28;20052;-57
2021/12/31 02:50:35;;;;;;;22.50;3.45;;;;;;;;;;5008361;28;20136;-59
2021/12/31 02:53:05;;;;;;;21.77;3.50;;;;;;;;;;5007380;28;20064;-57
2021/12/31 02:55:34;;;;;;;26.27;3.63;;;;;;;;;;5009290;28;20186;-59
2021/12/31 02:58:04;;;;;;;25.85;2.72;;;;;;;;;;4998147;28;20038;-59
2021/12/31 03:00:35;;;;;;;8.73;3.00;;;;;;;;;;4998528;28;22182;-59
2021/12/31 03:03:03;;;;;;;16.08;3.30;;;;;;;;;;5007670;28;20056;-58
2021/12/31 03:05:32;;;;;;;17.08;4.00;;;;;;;;;;5018231;28;20508;-59
2021/12/31 03:07:57;;;;;;;11.88;2.22;;;;;;;;;;5002355;28;20044;-59
2021/12/31 03:10:26;;;;;;;11.20;2.58;;;;;;;;;;5002947;28;20025;-58
2021/12/31 03:12:55;;;;;;;14.77;2.70;;;;;;;;;;5019571;28;20033;-59
2021/12/31 03:15:21;;;;;;;14.00;2.55;;;;;;;;;;5002774;28;20132;-59
2021/12/31 03:17:47;;;;;;;13.52;2.72;;;;;;;;;;5000519;28;20032;-59
2021/12/31 03:20:25;;;;;;;21.48;4.22;;;;;;;;;;5020594;28;20135;-58
2021/12/31 03:22:55;;;;;;;16.52;2.63;;;;;;;;;;5018391;28;20037;-59
2021/12/31 03:25:23;;;;;;;14.10;2.90;;;;;;;;;;4995486;28;20034;-60
2021/12/31 03:27:48;;;;;;;20.10;4.00;;;;;;;;;;5019273;28;20155;-59
2021/12/31 03:30:17;;;;;;;11.60;2.83;;;;;;;;;;4988896;28;20490;-59
2021/12/31 03:32:48;;;;;;;11.48;3.03;;;;;;;;;;5020430;28;20941;-59
2021/12/31 03:35:13;;;;;;;11.27;3.60;;;;;;;;;;5019677;28;20057;-59
2021/12/31 03:37:41;;;;;;;13.05;3.05;;;;;;;;;;5019700;28;20048;-59
2021/12/31 03:40:12;;;;;;;15.82;3.67;;;;;;;;;;5019286;28;20208;-59
2021/12/31 03:42:39;;;;;;;13.77;3.33;;;;;;;;;;5021406;28;20091;-59
2021/12/31 03:45:05;;;;;;;10.35;2.70;;;;;;;;;;5019547;28;20044;-57
2021/12/31 03:47:33;;;;;;;18.27;2.85;;;;;;;;;;4987762;28;20037;-59
2021/12/31 03:50:00;;;;;;;17.10;3.10;;;;;;;;;;5018908;28;20099;-59
2021/12/31 03:52:26;;;;;;;15.73;2.92;;;;;;;;;;4989166;28;20502;-59
2021/12/31 03:54:52;;;;;;;16.95;2.90;;;;;;;;;;5003618;28;20040;-59
2021/12/31 03:57:17;;;;;;;13.52;2.42;;;;;;;;;;5017920;28;20033;-58
2021/12/31 03:59:43;;;;;;;11.57;2.35;;;;;;;;;;5001648;28;20036;-59
2021/12/31 04:02:08;;;;;;;14.15;2.42;;;;;;;;;;5002283;28;20040;-59
2021/12/31 04:04:33;;;;;;;14.68;2.40;;;;;;;;;;4999475;28;20095;-59
2021/12/31 04:06:59;;;;;;;12.88;2.47;;;;;;;;;;4972378;28;20041;-59
2021/12/31 04:09:26;;;;;;;8.68;2.40;;;;;;;;;;5003209;28;20033;-59
2021/12/31 04:11:52;;;;;;;9.73;2.08;;;;;;;;;;5018866;28;20514;-58
2021/12/31 04:14:17;;;;;;;10.48;2.13;;;;;;;;;;5019392;28;20029;-59
2021/12/31 04:16:43;;;;;;;20.63;2.97;;;;;;;;;;5003181;28;20064;-59
2021/12/31 04:19:10;;;;;;;9.50;1.92;;;;;;;;;;5017863;28;20029;-58
2021/12/31 04:21:43;;;;;;;10.48;2.55;;;;;;;;;;5018091;28;20716;-59
2021/12/31 04:24:15;;;;;;;11.50;2.33;;;;;;;;;;4999585;28;20047;-58
2021/12/31 04:26:41;;;;;;;8.48;2.20;;;;;;;;;;5018189;28;20238;-59
2021/12/31 04:29:06;;;;;;;7.32;1.83;;;;;;;;;;5015584;28;20476;-58
2021/12/31 04:31:32;;;;;;;10.90;2.80;;;;;;;;;;4989557;28;20045;-58
2021/12/31 04:34:04;;;;;;;9.75;2.85;;;;;;;;;;4989708;28;20042;-60
2021/12/31 04:36:29;;;;;;;13.93;2.55;;;;;;;;;;5016621;28;21756;-58
2021/12/31 04:38:57;;;;;;;13.65;2.35;;;;;;;;;;5017120;28;21003;-58
2021/12/31 04:41:22;;;;;;;8.15;2.40;;;;;;;;;;5001850;28;20060;-59
2021/12/31 04:43:49;;;;;;;19.63;2.33;;;;;;;;;;4985444;28;20251;-59
2021/12/31 04:46:14;;;;;;;11.18;2.60;;;;;;;;;;5003482;28;20029;-58
2021/12/31 04:48:42;;;;;;;8.13;2.10;;;;;;;;;;4982424;28;20037;-59
2021/12/31 04:51:10;;;;;;;14.40;2.53;;;;;;;;;;5001855;28;20567;-59
2021/12/31 04:53:35;;;;;;;8.57;2.42;;;;;;;;;;5014906;28;20033;-59
2021/12/31 04:56:03;;;;;;;7.15;2.42;;;;;;;;;;5005131;28;20037;-59
2021/12/31 04:58:28;;;;;;;16.77;2.67;;;;;;;;;;5000739;28;20044;-58
2021/12/31 05:00:54;;;;;;;13.27;2.72;;;;;;;;;;5015942;28;20040;-57
2021/12/31 05:03:22;;;;;;;17.95;3.15;;;;;;;;;;5016403;28;20041;-58
2021/12/31 05:05:50;;;;;;;8.05;2.25;;;;;;;;;;5004996;28;20045;-58
2021/12/31 05:08:16;;;;;;;13.50;2.60;;;;;;;;;;5018740;28;21235;-58
2021/12/31 05:10:43;;;;;;;16.70;2.90;;;;;;;;;;5017821;28;20041;-58
2021/12/31 05:13:15;;;;;;;10.60;2.72;;;;;;;;;;5016346;28;20025;-57
2021/12/31 05:15:47;;;;;;;6.55;1.88;;;;;;;;;;5016465;28;20040;-58
2021/12/31 05:18:15;;;;;;;10.32;2.20;;;;;;;;;;4986796;28;20044;-59
2021/12/31 05:20:43;;;;;;;5.32;1.90;;;;;;;;;;5016027;28;20041;-60
2021/12/31 05:23:11;;;;;;;6.65;2.05;;;;;;;;;;5018713;28;20503;-59
2021/12/31 05:25:36;;;;;;;7.80;2.20;;;;;;;;;;5018876;28;20067;-59
2021/12/31 05:28:02;;;;;;;8.70;2.67;;;;;;;;;;4998662;28;20044;-59
2021/12/31 05:30:27;;;;;;;11.30;2.47;;;;;;;;;;4989351;28;20026;-58
2021/12/31 05:32:55;;;;;;;6.82;2.20;;;;;;;;;;5017878;28;20026;-59
2021/12/31 05:35:21;;;;;;;2.88;1.58;;;;;;;;;;5016933;28;20087;-58
2021/12/31 05:37:52;;;;;;;3.72;1.90;;;;;;;;;;5018615;28;20044;-59
2021/12/31 05:40:18;;;;;;;3.38;2.10;;;;;;;;;;5002637;28;20135;-59
2021/12/31 05:42:49;;;;;;;8.38;2.38;;;;;;;;;;5021447;28;22176;-58
2021/12/31 05:45:15;;;;;;;8.80;1.98;;;;;;;;;;5023070;28;20112;-59
2021/12/31 05:47:43;;;;;;;4.95;1.42;;;;;;;;;;5003271;28;20040;-59
2021/12/31 05:50:19;;;;;;;6.55;1.65;;;;;;;;;;5020912;28;21942;-59
2021/12/31 05:52:45;;;;;;;5.23;1.80;;;;;;;;;;5021487;28;20033;-59
2021/12/31 05:55:14;;;;;;;2.80;1.58;;;;;;;;;;5010016;28;20294;-59
2021/12/31 05:57:41;;;;;;;10.77;2.55;;;;;;;;;;4990663;28;20052;-58
2021/12/31 06:00:11;;;;;;;2.55;1.52;;;;;;;;;;5003553;28;20041;-58
2021/12/31 06:02:37;;;;;;;6.85;2.47;;;;;;;;;;5006781;28;20033;-59
2021/12/31 06:05:03;;;;;;;7.93;1.80;;;;;;;;;;5018848;28;20381;-58
2021/12/31 06:07:36;;;;;;;8.55;3.03;;;;;;;;;;5004963;28;20119;-59
2021/12/31 06:10:02;;;;;;;10.55;2.05;;;;;;;;;;5011373;28;20056;-60
2021/12/31 06:12:28;;;;;;;9.82;2.33;;;;;;;;;;5020147;28;20598;-58
2021/12/31 06:14:58;;;;;;;5.95;2.65;;;;;;;;;;5019335;28;20033;-60
2021/12/31 06:17:28;;;;;;;5.05;1.92;;;;;;;;;;5022018;28;20048;-59
2021/12/31 06:19:58;;;;;;;6.22;2.40;;;;;;;;;;4988302;28;20274;-59
2021/12/31 06:22:29;;;;;;;5.65;3.08;;;;;;;;;;5021953;28;20153;-58
2021/12/31 06:24:55;;;;;;;7.15;2.78;;;;;;;;;;5020939;28;20038;-60
2021/12/31 06:27:20;;;;;;;7.20;2.88;;;;;;;;;;4990472;28;20044;-58
2021/12/31 06:29:45;;;;;;;5.70;2.17;;;;;;;;;;5002458;28;20436;-59
2021/12/31 06:32:11;;;;;;;8.23;2.10;;;;;;;;;;5019033;28;20116;-61
2021/12/31 06:34:41;;;;;;;6.78;2.90;;;;;;;;;;5001374;28;20037;-60
2021/12/31 06:37:06;;;;;;;4.47;2.10;;;;;;;;;;5003271;28;20153;-60
2021/12/31 06:39:32;;;;;;;6.78;2.30;;;;;;;;;;5005669;28;20025;-58
2021/12/31 06:42:03;;;;;;;6.20;2.20;;;;;;;;;;5006252;28;22034;-59
2021/12/31 06:44:31;;;;;;;7.22;2.40;;;;;;;;;;4989582;28;20037;-58
2021/12/31 06:46:56;;;;;;;3.70;1.90;;;;;;;;;;4991025;28;20034;-57
2021/12/31 06:49:26;;;;;;;5.82;2.08;;;;;;;;;;4994055;28;20041;-59
2021/12/31 06:51:52;;;;;;;4.40;1.75;;;;;;;;;;5002052;28;20091;-59
2021/12/31 06:54:17;;;;;;;3.50;2.33;;;;;;;;;;5020020;28;20041;-58
2021/12/31 06:56:45;;;;;;;9.02;2.25;;;;;;;;;;5021331;28;20120;-58
2021/12/31 06:59:10;;;;;;;6.57;2.42;;;;;;;;;;5010277;28;20037;-58
2021/12/31 07:01:36;;;;;;;6.05;2.35;;;;;;;;;;5019588;28;20151;-59
2021/12/31 07:04:04;;;;;;;5.18;2.05;;;;;;;;;;5016150;28;20037;-59
2021/12/31 07:06:32;;;;;;;5.70;2.17;;;;;;;;;;4982421;28;20349;-59
2021/12/31 07:08:57;;;;;;;4.07;2.00;;;;;;;;;;4997870;28;20045;-60
2021/12/31 07:11:23;;;;;;;7.47;2.42;;;;;;;;;;5001761;28;20413;-60
2021/12/31 07:13:51;;;;;;;5.97;2.20;;;;;;;;;;4968749;28;20876;-58
2021/12/31 07:16:16;;;;;;;6.07;2.13;;;;;;;;;;4998316;28;20049;-60
2021/12/31 07:18:44;;;;;;;6.90;1.90;;;;;;;;;;4987984;28;20030;-60
2021/12/31 07:21:10;;;;;;;3.30;2.10;;;;;;;;;;4986256;28;20044;-60
2021/12/31 07:23:38;;;;;;;6.15;2.33;;;;;;;;;;4998846;28;20126;-60
2021/12/31 07:26:03;;;;;;;6.68;2.22;;;;;;;;;;4982685;28;20064;-59
2021/12/31 07:28:34;;;;;;;4.95;2.05;;;;;;;;;;5000537;28;20037;-58
2021/12/31 07:31:00;;;;;;;9.18;1.80;;;;;;;;;;4983620;28;20132;-59
2021/12/31 07:33:28;;;;;;;2.60;1.85;;;;;;;;;;4952255;28;20025;-59
2021/12/31 07:35:53;;;;;;;5.80;1.83;;;;;;;;;;4988302;28;20035;-59
2021/12/31 07:38:27;;;;;;;3.80;1.88;;;;;;;;;;4989211;28;20034;-58
2021/12/31 07:40:54;;;;;;;5.00;2.17;;;;;;;;;;4999800;28;20037;-59
2021/12/31 07:43:21;;;;;;;7.25;2.15;;;;;;;;;;4999189;28;20017;-59
2021/12/31 07:45:46;;;;;;;6.30;1.85;;;;;;;;;;5001410;28;20033;-59
2021/12/31 07:48:14;;;;;;;5.30;2.60;;;;;;;;;;5000630;28;20029;-59
2021/12/31 07:50:40;;;;;;;8.57;2.20;;;;;;;;;;4998143;28;20049;-58
2021/12/31 07:53:05;;;;;;;6.32;1.85;;;;;;;;;;4974017;28;20145;-60
2021/12/31 07:55:31;;;;;;;4.15;2.20;;;;;;;;;;4988360;28;20061;-58
2021/12/31 07:58:01;;;;;;;7.32;1.75;;;;;;;;;;4965295;28;20476;-61
2021/12/31 08:00:28;;;;;;;5.82;2.38;;;;;;;;;;4983079;28;20667;-60
2021/12/31 08:02:56;;;;;;;8.48;2.03;;;;;;;;;;4997294;28;20034;-61
2021/12/31 08:05:26;;;;;;;9.98;1.95;;;;;;;;;;5009830;28;20767;-61
2021/12/31 08:07:51;;;;;;;4.18;1.95;;;;;;;;;;4999174;28;20508;-60
2021/12/31 08:10:20;;;;;;;3.10;1.50;;;;;;;;;;5017911;28;20029;-59
2021/12/31 08:12:46;;;;;;;4.57;2.03;;;;;;;;;;5002427;28;20029;-60
2021/12/31 08:15:14;;;;;;;3.40;1.73;;;;;;;;;;5016390;28;20647;-61
2021/12/31 08:17:39;;;;;;;4.40;1.58;;;;;;;;;;5018164;28;20631;-60
2021/12/31 08:20:08;;;;;;;2.63;1.63;;;;;;;;;;5002145;28;20033;-59
2021/12/31 08:22:36;;;;;;;3.55;2.10;;;;;;;;;;4981588;28;20033;-59
2021/12/31 08:25:04;;;;;;;4.80;1.70;;;;;;;;;;4983957;28;20039;-60
2021/12/31 08:27:32;;;;;;;7.10;1.90;;;;;;;;;;4984845;28;20021;-59
2021/12/31 08:29:58;;;;;;;3.92;1.90;;;;;;;;;;5015574;28;22109;-60
2021/12/31 08:32:24;;;;;;;3.15;1.70;;;;;;;;;;5011996;28;20041;-59
2021/12/31 08:34:52;;;;;;;4.60;2.22;;;;;;;;;;5017867;28;20099;-59
2021/12/31 08:37:20;;;;;;;2.95;1.52;;;;;;;;;;4998944;28;20048;-60
2021/12/31 08:39:46;;;;;;;3.83;1.75;;;;;;;;;;5018593;28;20044;-60
2021/12/31 08:42:14;;;;;;;6.63;2.00;;;;;;;;;;5000562;28;20041;-60
2021/12/31 08:44:42;;;;;;;5.80;1.70;;;;;;;;;;5001950;28;20033;-60
2021/12/31 08:47:11;;;;;;;5.65;1.95;;;;;;;;;;5001494;28;20214;-59
2021/12/31 08:49:36;;;;;;;3.75;1.60;;;;;;;;;;5015219;28;20132;-60
2021/12/31 08:52:04;;;;;;;3.80;1.95;;;;;;;;;;5002790;28;20032;-60
2021/12/31 08:54:32;;;;;;;4.65;1.70;;;;;;;;;;5009590;28;20065;-60
2021/12/31 08:57:02;;;;;;;4.18;1.60;;;;;;;;;;5003606;28;20503;-59
2021/12/31 08:59:31;;;;;;;4.28;2.08;;;;;;;;;;4999299;28;20290;-58
2021/12/31 09:01:57;;;;;;;4.07;1.77;;;;;;;;;;5012811;28;21139;-60
2021/12/31 09:04:23;;;;;;;16.55;2.50;;;;;;;;;;5010085;28;20037;-60
2021/12/31 09:06:51;;;;;;;11.10;2.13;;;;;;;;;;4987556;28;20037;-59
2021/12/31 09:09:21;;;;;;;5.35;1.83;;;;;;;;;;4989816;28;20033;-60
2021/12/31 09:11:47;;;;;;;8.48;1.80;;;;;;;;;;4989558;28;20025;-59
2021/12/31 09:14:15;;;;;;;4.80;1.42;;;;;;;;;;4990545;28;20103;-59
2021/12/31 09:16:45;;;;;;;7.78;1.90;;;;;;;;;;5011780;28;20025;-59
2021/12/31 09:19:10;;;;;;;5.28;1.83;;;;;;;;;;5019629;28;20037;-59
2021/12/31 09:21:38;;;;;;;3.15;1.88;;;;;;;;;;4991981;28;20596;-59
2021/12/31 09:24:09;;;;;;;9.73;1.98;;;;;;;;;;5012601;28;20030;-59
2021/12/31 09:26:35;;;;;;;10.45;1.85;;;;;;;;;;4990002;28;20029;-59
2021/12/31 09:29:00;;;;;;;7.75;1.80;;;;;;;;;;5022565;28;20740;-59
2021/12/31 09:31:29;;;;;;;4.35;2.17;;;;;;;;;;5021545;28;20033;-60
2021/12/31 09:33:59;;;;;;;5.50;1.92;;;;;;;;;;5021565;28;20025;-60
2021/12/31 09:36:24;;;;;;;9.45;1.77;;;;;;;;;;5002909;28;20055;-59
2021/12/31 09:38:51;;;;;;;4.30;2.08;;;;;;;;;;5019671;28;20028;-59
2021/12/31 09:41:19;;;;;;;5.05;1.98;;;;;;;;;;5019730;28;20041;-59
2021/12/31 09:43:50;;;;;;;7.78;2.20;;;;;;;;;;5008734;28;20483;-60
2021/12/31 09:46:17;;;;;;;3.42;1.75;;;;;;;;;;5020133;28;20083;-58
2021/12/31 09:48:46;;;;;;;6.82;3.10;;;;;;;;;;5002064;28;20112;-60
2021/12/31 09:51:16;;;;;;;6.45;2.05;;;;;;;;;;5020664;28;20060;-58
2021/12/31 09:53:42;;;;;;;5.10;1.60;;;;;;;;;;5007752;28;20037;-59
2021/12/31 09:56:08;;;;;;;6.07;2.30;;;;;;;;;;5018169;28;20036;-59
2021/12/31 09:58:35;;;;;;;10.68;2.58;;;;;;;;;;5020181;28;20030;-59
2021/12/31 10:01:03;;;;;;;7.35;1.83;;;;;;;;;;5004815;28;20048;-59
2021/12/31 10:03:32;;;;;;;11.82;2.10;;;;;;;;;;5018471;28;20050;-59
2021/12/31 10:06:16;;;;;;;10.10;2.60;;;;;;;;;;5007462;28;20034;-59
2021/12/31 10:08:46;;;;;;;7.63;2.50;;;;;;;;;;5018790;28;20511;-58
2021/12/31 10:11:11;;;;;;;8.48;2.33;;;;;;;;;;5016001;28;20069;-58
2021/12/31 10:13:40;;;;;;;10.20;2.53;;;;;;;;;;5019512;28;20167;-58
2021/12/31 10:16:09;;;;;;;10.15;2.55;;;;;;;;;;5018497;28;20033;-59
2021/12/31 10:18:35;;;;;;;9.35;2.42;;;;;;;;;;4997742;28;20029;-58
2021/12/31 10:21:01;;;;;;;7.32;2.60;;;;;;;;;;5018877;28;20523;-58
2021/12/31 10:23:26;;;;;;;12.18;2.88;;;;;;;;;;5019519;28;20025;-59
2021/12/31 10:26:17;;;;;;;10.88;2.80;;;;;;;;;;5007548;28;20037;-58
2021/12/31 10:28:57;;;;;;;7.35;2.72;;;;;;;;;;5003837;28;20037;-57
2021/12/31 10:31:22;;;;;;;9.82;2.90;;;;;;;;;;4990890;28;20040;-58
2021/12/31 10:33:48;;;;;;;6.03;3.00;;;;;;;;;;5019370;28;21965;-58
2021/12/31 10:36:35;;;;;;;10.68;3.53;;;;;;;;;;5003991;28;20138;-59
2021/12/31 10:39:16;;;;;;;7.38;3.67;;;;;;;;;;5020569;28;20572;-56
2021/12/31 10:41:44;;;;;;;9.35;3.75;;;;;;;;;;5018768;28;20184;-58
2021/12/31 10:44:09;;;;;;;9.07;3.45;;;;;;;;;;5019233;28;20041;-58
2021/12/31 10:46:34;;;;;;;7.15;2.58;;;;;;;;;;5020415;28;20029;-57
2021/12/31 10:49:07;;;;;;;8.68;2.80;;;;;;;;;;5001281;28;20025;-58
2021/12/31 10:51:40;;;;;;;6.07;2.40;;;;;;;;;;5017556;28;20128;-58
2021/12/31 10:54:15;;;;;;;12.90;2.30;;;;;;;;;;5005587;28;20040;-57
2021/12/31 10:56:43;;;;;;;6.65;2.92;;;;;;;;;;5020881;28;20888;-58
2021/12/31 10:59:09;;;;;;;11.82;3.38;;;;;;;;;;5005400;28;20124;-56
2021/12/31 11:01:39;;;;;;;5.68;3.17;;;;;;;;;;5000968;28;20679;-57
2021/12/31 11:04:08;;;;;;;8.07;2.95;;;;;;;;;;4980335;28;20041;-58
2021/12/31 11:06:35;;;;;;;8.95;2.90;;;;;;;;;;5018454;28;20083;-56
2021/12/31 11:09:07;;;;;;;9.23;3.05;;;;;;;;;;4988620;28;20021;-56
2021/12/31 11:11:36;;;;;;;8.88;3.05;;;;;;;;;;4983960;28;20053;-57
2021/12/31 11:14:04;;;;;;;6.50;2.70;;;;;;;;;;5007139;28;20048;-58
2021/12/31 11:16:36;;;;;;;8.02;3.47;;;;;;;;;;4987871;28;20033;-56
2021/12/31 11:19:04;;;;;;;7.30;3.58;;;;;;;;;;5003075;28;20034;-58
2021/12/31 11:21:34;;;;;;;9.48;3.10;;;;;;;;;;5003159;28;20424;-59
2021/12/31 11:24:21;;;;;;;8.52;3.42;;;;;;;;;;5017305;28;20041;-57
2021/12/31 11:26:54;;;;;;;8.07;3.55;;;;;;;;;;5004582;28;20058;-58
2021/12/31 11:29:24;;;;;;;12.73;3.35;;;;;;;;;;5015126;28;20033;-59
2021/12/31 11:31:52;;;;;;;9.43;3.50;;;;;;;;;;5017367;28;21999;-58
2021/12/31 11:34:27;;;;;;;10.73;3.45;;;;;;;;;;5003638;28;21891;-58
2021/12/31 11:36:56;;;;;;;12.57;3.45;;;;;;;;;;5018591;28;20574;-57
2021/12/31 11:39:25;;;;;;;11.05;3.83;;;;;;;;;;5008157;28;20052;-58
2021/12/31 11:41:54;;;;;;;18.50;3.47;;;;;;;;;;5018054;28;21920;-59
2021/12/31 11:44:24;;;;;;;7.00;2.97;;;;;;;;;;5019468;28;20025;-59
2021/12/31 11:47:09;;;;;;;20.80;3.50;;;;;;;;;;5018456;28;20021;-57
2021/12/31 11:49:38;;;;;;;5.47;2.53;;;;;;;;;;5018269;28;20060;-57
2021/12/31 11:52:13;;;;;;;9.85;3.75;;;;;;;;;;4998070;28;20029;-59
2021/12/31 11:54:39;;;;;;;7.47;3.38;;;;;;;;;;5017386;28;20045;-59
2021/12/31 11:57:08;;;;;;;16.10;3.50;;;;;;;;;;5008930;28;20037;-60
2021/12/31 11:59:37;;;;;;;19.02;3.40;;;;;;;;;;5007455;28;20044;-58
2021/12/31 12:02:22;;;;;;;19.70;3.00;;;;;;;;;;5007764;28;20131;-59
2021/12/31 12:05:07;;;;;;;8.10;3.20;;;;;;;;;;5015594;28;22264;-60
2021/12/31 12:07:35;;;;;;;10.43;3.25;;;;;;;;;;5014644;28;20035;-59
2021/12/31 12:10:00;;;;;;;7.82;2.75;;;;;;;;;;5017789;28;20905;-59
2021/12/31 12:12:27;;;;;;;11.80;2.70;;;;;;;;;;4986555;28;20036;-58
2021/12/31 12:14:55;;;;;;;7.15;2.72;;;;;;;;;;5014205;28;20045;-60
2021/12/31 12:17:30;;;;;;;5.00;2.70;;;;;;;;;;5011079;28;20501;-58
2021/12/31 12:19:55;;;;;;;;;;;;;;;;;;5015869;28;20037;-59
2021/12/31 12:22:27;;;;;;;5.32;2.65;;;;;;;;;;4996066;28;20384;-58
2021/12/31 12:24:54;;;;;;;5.30;3.13;;;;;;;;;;5015058;28;20025;-59
2021/12/31 12:27:21;;;;;;;6.78;2.58;;;;;;;;;;5016985;28;20040;-56
2021/12/31 12:29:47;;;;;;;15.60;4.57;;;;;;;;;;5015745;28;20033;-59
2021/12/31 12:32:17;;;;;;;7.78;3.38;;;;;;;;;;4990528;28;20043;-57
2021/12/31 12:34:45;;;;;;;5.95;2.95;;;;;;;;;;5013960;28;20096;-60
2021/12/31 12:37:13;;;;;;;3.72;2.08;;;;;;;;;;5002217;28;20068;-58
2021/12/31 12:39:38;;;;;;;5.53;3.85;;;;;;;;;;5004825;28;20400;-58
2021/12/31 12:42:07;;;;;;;4.13;2.75;;;;;;;;;;5003793;28;20029;-58
2021/12/31 12:44:36;;;;;;;4.30;2.67;;;;;;;;;;5001190;28;20405;-59
2021/12/31 12:47:05;;;;;;;6.57;2.80;;;;;;;;;;5018573;28;20029;-58
2021/12/31 12:49:30;;;;;;;4.72;2.47;;;;;;;;;;4987361;28;20040;-57
2021/12/31 12:52:09;;;;;;;7.35;2.67;;;;;;;;;;4996163;28;20034;-57
2021/12/31 12:54:35;;;;;;;4.57;2.70;;;;;;;;;;5002166;28;20044;-58
2021/12/31 12:57:03;;;;;;;4.30;2.45;;;;;;;;;;5016811;28;20052;-60
2021/12/31 12:59:28;;;;;;;7.47;2.67;;;;;;;;;;5004507;28;20057;-58
2021/12/31 13:01:54;;;;;;;4.13;2.30;;;;;;;;;;5000407;28;20029;-58
2021/12/31 13:04:23;;;;;;;5.68;2.60;;;;;;;;;;4988565;28;20898;-59
2021/12/31 13:06:56;;;;;;;13.80;4.60;;;;;;;;;;4999938;28;20041;-59
2021/12/31 13:09:29;;;;;;;15.07;7.85;;;;;;;;;;5016134;28;20071;-62
2021/12/31 13:11:59;;;;;;;15.70;8.40;;;;;;;;;;5012027;28;20037;-59
2021/12/31 13:14:36;;;;;;;16.88;6.53;;;;;;;;;;4999767;28;20033;-58
2021/12/31 13:17:06;;;;;;;7.35;4.28;;;;;;;;;;5015098;28;20432;-58
2021/12/31 13:19:33;;;;;;;14.52;6.50;;;;;;;;;;4997721;28;21929;-57
2021/12/31 13:22:03;;;;;;;13.07;4.97;;;;;;;;;;5014425;28;20021;-58
2021/12/31 13:24:36;;;;;;;10.48;3.10;;;;;;;;;;5016885;28;20030;-56
2021/12/31 13:27:06;;;;;;;4.30;2.40;;;;;;;;;;5015008;28;20113;-58
2021/12/31 13:29:41;;;;;;;10.70;3.25;;;;;;;;;;4998204;28;20057;-58
2021/12/31 13:32:14;;;;;;;9.93;4.35;;;;;;;;;;4998885;28;20164;-58
2021/12/31 13:34:43;;;;;;;10.77;2.83;;;;;;;;;;5004623;28;20736;-58
2021/12/31 13:37:21;;;;;;;7.22;3.28;;;;;;;;;;5005839;28;20029;-57
2021/12/31 13:39:50;;;;;;;11.70;3.65;;;;;;;;;;5002582;28;20064;-60
2021/12/31 13:42:18;;;;;;;21.08;10.02;;;;;;;;;;4996522;28;20108;-58
2021/12/31 13:44:48;;;;;;;17.35;8.43;;;;;;;;;;4986299;28;20052;-58
2021/12/31 13:47:21;;;;;;;20.33;5.13;;;;;;;;;;5015897;28;20068;-58
2021/12/31 13:50:08;;;;;;;11.70;4.43;;;;;;;;;;5017460;28;20030;-58
2021/12/31 13:52:45;;;;;;;12.48;4.28;;;;;;;;;;4998013;28;20041;-58
2021/12/31 13:55:18;;;;;;;10.85;3.95;;;;;;;;;;5000645;28;20091;-58
2021/12/31 13:57:56;;;;;;;39.65;19.45;;;;;;;;;;5015376;28;20131;-58
2021/12/31 14:00:28;;;;;;;14.40;5.38;;;;;;;;;;4998303;28;20174;-57
2021/12/31 14:02:54;;;;;;;11.88;4.72;;;;;;;;;;5018294;28;20056;-57
2021/12/31 14:05:23;;;;;;;17.08;5.38;;;;;;;;;;4993136;28;20619;-57
2021/12/31 14:10:24;;;;;;;27.13;6.82;;;;;;;;;;5001669;28;20052;-57
2021/12/31 14:13:02;;;;;;;28.65;8.23;;;;;;;;;;5018554;28;20033;-59
2021/12/31 14:15:32;;;;;;;28.17;7.35;;;;;;;;;;5020153;28;20380;-58
2021/12/31 14:17:58;;;;;;;23.80;7.20;;;;;;;;;;4983927;28;20033;-58
2021/12/31 14:20:26;;;;;;;16.58;5.65;;;;;;;;;;5021161;28;20123;-58
2021/12/31 14:22:52;;;;;;;25.35;5.95;;;;;;;;;;5021376;28;20037;-59
2021/12/31 14:25:19;;;;;;;17.98;5.60;;;;;;;;;;5017887;28;20025;-58
2021/12/31 14:27:44;;;;;;;28.77;7.13;;;;;;;;;;5001478;28;20025;-57
2021/12/31 14:30:14;;;;;;;27.58;5.05;;;;;;;;;;5019831;28;22034;-58
2021/12/31 14:32:43;;;;;;;82.38;36.83;;;;;;;;;;5019785;28;22216;-58
2021/12/31 14:35:14;;;;;;;50.17;19.50;;;;;;;;;;5006890;28;20033;-57
2021/12/31 14:37:41;;;;;;;30.42;7.53;;;;;;;;;;5002537;28;20044;-57
2021/12/31 14:40:14;;;;;;;24.08;7.40;;;;;;;;;;5018246;28;20056;-57
2021/12/31 14:42:41;;;;;;;35.17;7.20;;;;;;;;;;5008045;28;20115;-58
2021/12/31 14:45:12;;;;;;;59.25;26.85;;;;;;;;;;5007723;28;20398;-58
2021/12/31 14:47:38;;;;;;;22.55;5.80;;;;;;;;;;5020005;28;20029;-56
2021/12/31 14:50:05;;;;;;;54.58;22.65;;;;;;;;;;5019602;28;20029;-58
2021/12/31 14:52:33;;;;;;;31.30;14.07;;;;;;;;;;5019096;28;20866;-57
2021/12/31 14:55:08;;;;;;;19.33;8.02;;;;;;;;;;5019692;28;20052;-58
2021/12/31 14:57:34;;;;;;;86.55;39.00;;;;;;;;;;5018838;28;20040;-58